Time;durP1;ratioP1;P1;durP2;ratioP2;P2;SDS_P1;SDS_P2;PMS_P1;PMS_P2;Temp;Humidity;BMP_temperature;BMP_pressure;BME280_temperature;BME280_humidity;BME280_pressure;Samples;Min_cycle;Max_cycle;Signal;HPM_P1;HPM_P2
2021/09/17 00:01:24;;;;;;;196.83;182.37;;;16.50;99.90;;;;;;5078360;28;20679;-82
2021/09/17 00:03:50;;;;;;;214.80;198.93;;;16.50;99.90;;;;;;5077714;28;20170;-82
2021/09/17 00:06:16;;;;;;;207.00;191.57;;;16.50;99.90;;;;;;5076333;28;20189;-81
2021/09/17 00:08:41;;;;;;;201.07;186.57;;;16.50;99.90;;;;;;5078088;28;20594;-82
2021/09/17 00:11:07;;;;;;;189.77;174.87;;;16.50;99.90;;;;;;5077811;28;20193;-81
2021/09/17 00:13:34;;;;;;;206.33;191.10;;;16.40;99.90;;;;;;5077930;28;20174;-82
2021/09/17 00:16:00;;;;;;;208.43;193.20;;;16.40;99.90;;;;;;5076329;28;20165;-82
2021/09/17 00:18:25;;;;;;;221.80;206.40;;;16.40;99.90;;;;;;5077503;28;20452;-81
2021/09/17 00:20:51;;;;;;;189.87;175.13;;;16.40;99.90;;;;;;5078047;28;20189;-82
2021/09/17 00:23:17;;;;;;;196.50;181.57;;;16.40;99.90;;;;;;5077576;28;20176;-81
2021/09/17 00:25:43;;;;;;;191.50;176.60;;;16.30;99.90;;;;;;5076417;28;20174;-82
2021/09/17 00:28:08;;;;;;;201.30;186.77;;;16.30;99.90;;;;;;5077827;28;20792;-82
2021/09/17 00:30:34;;;;;;;238.73;222.73;;;16.30;99.90;;;;;;5077369;28;20634;-82
2021/09/17 00:33:00;;;;;;;223.83;208.27;;;16.30;99.90;;;;;;5077976;28;20169;-82
2021/09/17 00:35:25;;;;;;;200.00;185.13;;;16.20;99.90;;;;;;5077312;28;20176;-82
2021/09/17 00:37:52;;;;;;;221.83;206.50;;;16.20;99.90;;;;;;5077146;28;20670;-82
2021/09/17 00:40:18;;;;;;;189.33;175.17;;;16.20;99.90;;;;;;5077240;28;20649;-82
2021/09/17 00:42:44;;;;;;;209.83;195.03;;;16.20;99.90;;;;;;5077784;28;20409;-82
2021/09/17 00:45:12;;;;;;;222.23;206.10;;;16.20;99.90;;;;;;5076991;28;20407;-82
2021/09/17 00:47:39;;;;;;;210.90;195.67;;;16.10;99.90;;;;;;5076020;28;20489;-82
2021/09/17 00:50:06;;;;;;;210.23;195.03;;;16.10;99.90;;;;;;5077647;28;20533;-81
2021/09/17 00:52:32;;;;;;;196.63;182.07;;;16.10;99.90;;;;;;5077157;28;20403;-85
2021/09/17 00:54:58;;;;;;;217.10;201.33;;;16.10;99.90;;;;;;5076662;28;20400;-82
2021/09/17 00:57:24;;;;;;;212.67;197.47;;;16.10;99.90;;;;;;5076648;28;20424;-81
2021/09/17 00:59:49;;;;;;;177.73;163.73;;;16.00;99.90;;;;;;5076966;28;20164;-81
2021/09/17 01:02:15;;;;;;;187.27;173.07;;;16.10;99.90;;;;;;5076997;28;20460;-81
2021/09/17 01:04:42;;;;;;;181.10;166.87;;;16.10;99.90;;;;;;5076631;28;20181;-82
2021/09/17 01:07:08;;;;;;;193.83;179.10;;;16.10;99.90;;;;;;5076389;28;20217;-82
2021/09/17 01:09:34;;;;;;;171.03;157.23;;;16.10;99.90;;;;;;5076151;28;20961;-82
2021/09/17 01:12:04;;;;;;;174.97;160.87;;;16.10;99.90;;;;;;5077053;28;20655;-82
2021/09/17 01:14:32;;;;;;;194.53;178.87;;;16.10;99.90;;;;;;5075673;28;20211;-82
2021/09/17 01:16:58;;;;;;;169.73;155.73;;;16.10;99.90;;;;;;5076427;28;20934;-82
2021/09/17 01:19:26;;;;;;;166.67;152.27;;;16.10;99.90;;;;;;5074908;28;20414;-81
2021/09/17 01:22:00;;;;;;;179.93;165.40;;;16.10;99.90;;;;;;5076105;28;20178;-82
2021/09/17 01:24:26;;;;;;;182.50;167.07;;;16.10;99.90;;;;;;5076186;28;20452;-81
2021/09/17 01:26:55;;;;;;;199.53;183.23;;;16.00;99.90;;;;;;5076474;28;20426;-82
2021/09/17 01:29:21;;;;;;;200.37;184.97;;;16.10;99.90;;;;;;5075877;28;20429;-80
2021/09/17 01:31:48;;;;;;;209.53;192.87;;;16.10;99.90;;;;;;5075219;28;20392;-82
2021/09/17 01:34:18;;;;;;;198.17;182.53;;;16.10;99.90;;;;;;5074354;28;20411;-82
2021/09/17 01:36:44;;;;;;;212.17;195.67;;;16.10;99.90;;;;;;5074450;28;20435;-82
2021/09/17 01:39:10;;;;;;;233.90;216.70;;;16.10;99.90;;;;;;5075677;28;20407;-82
2021/09/17 01:41:36;;;;;;;217.40;200.63;;;16.10;99.90;;;;;;5076085;28;20404;-82
2021/09/17 01:44:02;;;;;;;243.17;224.20;;;16.10;99.90;;;;;;5076333;28;20468;-82
2021/09/17 01:46:28;;;;;;;232.03;214.47;;;16.10;99.90;;;;;;5076175;28;20680;-82
2021/09/17 01:48:53;;;;;;;223.00;205.37;;;16.10;99.90;;;;;;5074823;28;20419;-81
2021/09/17 01:51:19;;;;;;;212.60;196.33;;;16.00;99.90;;;;;;5075898;28;20184;-81
2021/09/17 01:57:26;;;;;;;234.30;216.47;;;16.00;99.90;;;;;;4683750;26;20768;-88
2021/09/17 02:01:14;;;;;;;246.20;228.50;;;16.00;99.90;;;;;;4953445;28;20788;-88
2021/09/17 02:04:42;;;;;;;;;;;;;;;;;;;;;
2021/09/17 02:13:34;;;;;;;359.47;334.90;;;16.00;99.90;;;;;;5052646;28;20972;-88
2021/09/17 02:16:45;;;;;;;256.97;236.97;;;16.00;99.90;;;;;;5054278;28;20429;-88
2021/09/17 02:20:18;;;;;;;330.30;307.77;;;16.00;99.90;;;;;;5031018;28;20450;-88
2021/09/17 02:36:14;;;;;;;444.57;415.90;;;15.90;99.90;;;;;;4822443;29;20476;-87
2021/09/17 02:39:34;;;;;;;529.00;493.97;;;16.00;99.90;;;;;;4919073;28;20411;-87
2021/09/17 02:42:42;;;;;;;512.17;478.57;;;16.00;99.90;;;;;;4897892;29;20819;-87
2021/09/17 02:46:04;;;;;;;508.70;476.50;;;15.90;99.90;;;;;;4920083;28;20445;-87
2021/09/17 02:49:37;;;;;;;;;;;;;;;;;;;;;
2021/09/17 03:06:00;;;;;;;560.73;524.73;;;15.90;99.90;;;;;;4972165;28;20419;-87
2021/09/17 03:09:30;;;;;;;549.77;513.50;;;15.90;99.90;;;;;;5013935;28;20429;-87
2021/09/17 03:12:45;;;;;;;529.00;494.80;;;16.00;99.90;;;;;;4992801;28;20649;-87
2021/09/17 03:16:08;;;;;;;;;;;;;;;;;;;;;
2021/09/17 03:19:35;;;;;;;;;;;;;;;;;;;;;
2021/09/17 03:26:20;;;;;;;536.37;501.37;;;16.00;99.90;;;;;;4920368;28;20416;-87
2021/09/17 03:45:51;;;;;;;;;;;;;;;;;;;;;
2021/09/17 03:52:52;;;;;;;;;;;;;;;;;;;;;
2021/09/17 03:56:33;;;;;;;;;;;;;;;;;;;;;
2021/09/17 03:59:54;;;;;;;570.67;533.60;;;15.90;99.90;;;;;;4936192;29;20410;-87
2021/09/17 04:03:10;;;;;;;;;;;;;;;;;;;;;
2021/09/17 04:15:57;;;;;;;597.90;558.20;;;15.90;99.90;;;;;;4975016;28;20384;-87
2021/09/17 04:22:36;;;;;;;541.17;505.50;;;15.90;99.90;;;;;;5075608;28;20424;-87
2021/09/17 04:26:00;;;;;;;520.10;485.93;;;15.90;99.90;;;;;;5053171;28;20861;-87
2021/09/17 04:33:06;;;;;;;;;;;;;;;;;;;;;
2021/09/17 04:39:55;;;;;;;;;;;;;;;;;;;;;
2021/09/17 04:46:16;;;;;;;527.90;493.60;;;15.90;99.90;;;;;;4989664;28;20431;-87
2021/09/17 05:00:38;;;;;;;;;;;;;;;;;;;;;
2021/09/17 05:03:43;;;;;;;609.10;570.60;;;15.80;99.90;;;;;;4895815;29;20444;-87
2021/09/17 05:07:02;;;;;;;;;;;;;;;;;;;;;
2021/09/17 05:10:09;;;;;;;625.40;586.37;;;15.80;99.90;;;;;;4877047;28;20401;-87
2021/09/17 05:16:58;;;;;;;560.63;525.33;;;15.80;99.90;;;;;;4914641;29;20443;-88
2021/09/17 05:24:27;;;;;;;547.53;513.17;;;15.80;99.90;;;;;;4908928;29;20405;-87
2021/09/17 05:27:57;;;;;;;610.43;572.40;;;15.80;99.90;;;;;;4914353;29;20477;-87
2021/09/17 05:31:39;;;;;;;605.87;568.47;;;15.80;99.90;;;;;;4898929;29;20468;-87
2021/09/17 05:42:30;;;;;;;;;;;;;;;;;;;;;
2021/09/17 05:51:22;;;;;;;578.67;542.63;;;15.80;99.90;;;;;;4992284;28;20447;-88
2021/09/17 05:54:50;;;;;;;;;;;;;;;;;;;;;
2021/09/17 06:02:27;;;;;;;547.70;513.93;;;15.90;99.90;;;;;;5071229;23;20475;-87
2021/09/17 06:09:08;;;;;;;586.03;549.10;;;16.00;99.90;;;;;;5035884;28;20264;-88
2021/09/17 06:11:37;;;;;;;575.23;540.07;;;16.00;99.90;;;;;;5049393;28;20541;-88
2021/09/17 06:14:33;;;;;;;560.77;526.70;;;16.00;99.90;;;;;;5047183;28;20422;-88
2021/09/17 06:27:33;;;;;;;;;;;;;;;;;;;;;
2021/09/17 06:30:40;;;;;;;555.77;521.90;;;16.00;99.90;;;;;;5052846;28;20512;-88
2021/09/17 06:33:42;;;;;;;572.83;537.73;;;16.00;99.90;;;;;;5049309;28;20408;-88
2021/09/17 06:43:14;;;;;;;534.27;500.97;;;16.10;99.90;;;;;;4972040;28;20416;-87
2021/09/17 06:55:36;;;;;;;542.07;509.63;;;16.10;99.90;;;;;;5004834;28;20410;-87
2021/09/17 06:59:02;;;;;;;564.07;529.97;;;16.10;99.90;;;;;;4977290;28;20451;-88
2021/09/17 07:02:15;;;;;;;535.30;503.70;;;16.10;99.90;;;;;;4966864;28;20996;-87
2021/09/17 07:06:12;;;;;;;547.37;514.70;;;16.10;99.90;;;;;;5013749;28;20452;-88
2021/09/17 07:08:56;;;;;;;538.00;505.43;;;16.10;99.90;;;;;;4993397;28;20454;-88
2021/09/17 07:12:04;;;;;;;567.60;533.03;;;16.10;99.90;;;;;;4931745;28;20524;-89
2021/09/17 07:22:14;;;;;;;545.23;511.53;;;16.30;99.90;;;;;;4880851;29;20455;-89
2021/09/17 07:25:22;;;;;;;553.97;520.70;;;16.30;99.90;;;;;;4866099;29;20426;-89
2021/09/17 07:28:36;;;;;;;;;;;;;;;;;;;;;
2021/09/17 07:35:20;;;;;;;559.37;524.67;;;16.40;99.90;;;;;;4824353;29;20767;-88
2021/09/17 07:56:38;;;;;;;473.33;443.90;;;16.50;99.90;;;;;;4989665;26;20469;-84
2021/09/17 07:59:07;;;;;;;461.63;432.40;;;16.50;99.90;;;;;;4997806;28;20500;-84
2021/09/17 08:09:14;;;;;;;;;;;;;;;;;;;;;
2021/09/17 08:11:54;;;;;;;442.53;414.07;;;16.50;99.90;;;;;;4966183;28;20467;-84
2021/09/17 08:14:19;;;;;;;430.77;403.37;;;16.50;99.90;;;;;;5038635;28;20492;-84
2021/09/17 08:17:32;;;;;;;396.67;370.67;;;16.60;99.90;;;;;;5078057;28;20429;-84
2021/09/17 08:20:10;;;;;;;347.93;323.63;;;16.70;99.90;;;;;;5077772;28;20579;-84
2021/09/17 08:26:12;;;;;;;352.80;329.43;;;16.80;99.90;;;;;;5078066;28;20396;-85
2021/09/17 08:29:31;;;;;;;368.60;344.37;;;16.80;99.90;;;;;;5043494;28;20414;-84
2021/09/17 08:32:18;;;;;;;;;;;;;;;;;;;;;
2021/09/17 08:35:41;;;;;;;370.30;345.00;;;16.90;99.90;;;;;;5077769;28;20470;-84
2021/09/17 08:38:06;;;;;;;368.17;343.10;;;17.00;99.90;;;;;;5064823;28;20441;-85
2021/09/17 08:41:05;;;;;;;;;;;;;;;;;;;;;
2021/09/17 08:43:54;;;;;;;349.87;325.70;;;17.00;99.90;;;;;;5078726;28;20200;-84
2021/09/17 08:46:38;;;;;;;;;;;;;;;;;;;;;
2021/09/17 08:49:14;;;;;;;;;;;;;;;;;;;;;
2021/09/17 08:51:53;;;;;;;317.80;295.73;;;17.10;99.90;;;;;;5075837;28;20979;-84
2021/09/17 08:54:28;;;;;;;259.60;240.13;;;17.20;99.90;;;;;;5058531;28;20990;-84
2021/09/17 09:01:14;;;;;;;336.13;313.50;;;17.20;99.90;;;;;;4983948;28;20409;-85
2021/09/17 09:04:42;;;;;;;;;;;;;;;;;;;;;
2021/09/17 09:08:25;;;;;;;;;;;;;;;;;;;;;
2021/09/17 09:11:18;;;;;;;348.57;325.30;;;17.50;99.90;;;;;;4854355;28;20472;-83
2021/09/17 09:21:35;;;;;;;;;;;;;;;;;;;;;
2021/09/17 09:24:40;;;;;;;300.37;279.97;;;17.90;99.90;;;;;;4995324;28;20415;-86
2021/09/17 09:34:04;;;;;;;272.63;253.73;;;17.90;99.90;;;;;;4981352;28;20407;-86
2021/09/17 09:40:50;;;;;;;232.83;215.53;;;17.90;99.90;;;;;;4917979;29;20414;-85
2021/09/17 09:44:13;;;;;;;;;;;;;;;;;;;;;
2021/09/17 09:54:23;;;;;;;194.20;178.23;;;18.00;99.90;;;;;;4989339;28;20456;-84
2021/09/17 09:57:25;;;;;;;171.93;156.73;;;18.10;99.90;;;;;;5020916;28;20431;-84
2021/09/17 10:00:49;;;;;;;;;;;;;;;;;;;;;
2021/09/17 10:04:16;;;;;;;157.73;144.03;;;18.30;99.90;;;;;;5056196;28;20495;-85
2021/09/17 10:10:37;;;;;;;151.27;137.70;;;18.50;99.90;;;;;;5065339;28;20513;-84
2021/09/17 10:13:12;;;;;;;219.70;203.10;;;18.60;99.90;;;;;;5075534;28;20475;-84
2021/09/17 10:15:56;;;;;;;177.70;162.00;;;19.00;99.90;;;;;;5075204;28;20417;-83
2021/09/17 10:18:31;;;;;;;178.53;163.67;;;18.90;99.90;;;;;;5058146;28;20828;-84
2021/09/17 10:21:07;;;;;;;171.17;156.77;;;19.10;99.90;;;;;;5057987;28;20402;-83
2021/09/17 10:27:51;;;;;;;185.53;170.73;;;19.00;99.90;;;;;;4974603;28;20525;-85
2021/09/17 10:31:13;;;;;;;175.00;160.80;;;18.90;99.90;;;;;;4923109;28;20463;-85
2021/09/17 10:33:56;;;;;;;192.30;177.00;;;19.10;99.90;;;;;;4916202;29;20445;-84
2021/09/17 10:36:44;;;;;;;385.30;362.87;;;19.60;99.90;;;;;;4992908;28;20544;-84
2021/09/17 10:39:59;;;;;;;408.90;385.93;;;20.00;99.90;;;;;;5060379;28;20529;-84
2021/09/17 10:42:37;;;;;;;296.50;277.90;;;20.20;99.90;;;;;;5067003;28;20406;-84
2021/09/17 10:45:11;;;;;;;382.20;359.73;;;20.20;99.90;;;;;;5060440;28;20402;-84
2021/09/17 10:48:25;;;;;;;195.00;179.57;;;20.50;99.90;;;;;;5053724;28;20427;-84
2021/09/17 10:51:03;;;;;;;89.43;48.00;;;20.70;99.90;;;;;;5058534;28;20466;-84
2021/09/17 10:57:25;;;;;;;86.23;40.80;;;21.20;99.90;;;;;;5076436;28;20432;-84
2021/09/17 10:59:59;;;;;;;86.77;37.20;;;21.40;99.90;;;;;;5080410;28;20839;-83
2021/09/17 11:02:41;;;;;;;95.67;61.87;;;21.40;99.90;;;;;;5079131;28;20767;-84
2021/09/17 11:05:29;;;;;;;;;;;;;;;;;;;;;
2021/09/17 11:08:02;;;;;;;232.27;215.60;;;21.90;99.90;;;;;;5078244;28;20435;-83
2021/09/17 11:10:36;;;;;;;235.07;218.27;;;22.00;99.90;;;;;;5056803;28;20454;-83
2021/09/17 11:13:25;;;;;;;107.90;94.40;;;22.00;99.90;;;;;;5060809;28;20433;-85
2021/09/17 11:16:25;;;;;;;102.73;83.70;;;22.10;99.90;;;;;;5078610;28;20473;-84
2021/09/17 11:19:36;;;;;;;99.90;72.97;;;22.10;99.90;;;;;;5060858;28;20460;-83
2021/09/17 11:22:34;;;;;;;;;;;;;;;;;;;;;
2021/09/17 11:25:16;;;;;;;99.93;68.83;;;21.70;99.90;;;;;;5079174;28;20375;-83
2021/09/17 11:27:55;;;;;;;186.00;170.97;;;21.40;99.90;;;;;;5056919;22;20517;-83
2021/09/17 11:30:32;;;;;;;109.73;90.20;;;21.40;99.90;;;;;;5038322;28;20454;-83
2021/09/17 11:33:45;;;;;;;138.20;124.90;;;21.70;99.90;;;;;;5038684;28;20495;-83
2021/09/17 11:39:56;;;;;;;96.90;66.17;;;21.80;99.90;;;;;;4904188;29;20498;-83
2021/09/17 11:42:48;;;;;;;99.10;65.63;;;22.10;99.90;;;;;;4939796;29;20527;-83
2021/09/17 11:45:23;;;;;;;100.33;72.47;;;22.20;99.90;;;;;;4942122;29;20470;-84
2021/09/17 11:47:55;;;;;;;95.13;65.47;;;22.40;99.90;;;;;;4993101;28;20925;-84
2021/09/17 11:50:29;;;;;;;242.13;224.67;;;22.70;99.90;;;;;;5017907;28;20449;-84
2021/09/17 11:53:14;;;;;;;249.43;232.23;;;22.90;99.80;;;;;;5004789;28;20437;-84
2021/09/17 11:55:40;;;;;;;231.33;214.60;;;22.90;97.20;;;;;;5006904;28;20476;-84
2021/09/17 11:58:09;;;;;;;270.67;252.37;;;22.90;98.40;;;;;;5023227;28;20851;-84
2021/09/17 12:00:38;;;;;;;232.53;215.30;;;23.10;99.80;;;;;;5006728;28;20413;-84
2021/09/17 12:03:31;;;;;;;202.13;186.73;;;23.40;96.40;;;;;;5006970;28;20406;-84
2021/09/17 12:06:31;;;;;;;193.97;178.97;;;23.70;95.70;;;;;;5023107;28;20419;-83
2021/09/17 12:09:02;;;;;;;213.23;197.33;;;24.00;96.10;;;;;;5018852;28;20382;-83
2021/09/17 12:12:22;;;;;;;345.20;322.87;;;24.20;93.10;;;;;;5001407;28;20460;-83
2021/09/17 12:16:18;;;;;;;203.23;187.47;;;24.10;92.40;;;;;;4973243;28;20492;-82
2021/09/17 12:19:02;;;;;;;201.43;185.77;;;24.20;92.40;;;;;;4976258;28;20401;-82
2021/09/17 12:21:27;;;;;;;188.80;174.03;;;23.50;95.20;;;;;;5001437;28;20409;-82
2021/09/17 12:23:55;;;;;;;204.17;188.80;;;23.30;97.50;;;;;;4999095;28;20416;-83
2021/09/17 12:26:23;;;;;;;188.23;173.03;;;23.20;97.30;;;;;;5018188;28;20193;-83
2021/09/17 12:28:56;;;;;;;143.67;130.57;;;23.00;99.40;;;;;;5020060;28;20892;-84
2021/09/17 12:31:47;;;;;;;156.30;142.10;;;23.00;98.90;;;;;;5003402;28;20445;-83
2021/09/17 12:34:39;;;;;;;156.70;142.77;;;22.80;99.90;;;;;;5017195;28;20900;-83
2021/09/17 12:37:11;;;;;;;168.90;154.77;;;22.70;99.10;;;;;;5018053;28;20750;-83
2021/09/17 12:39:39;;;;;;;246.17;229.30;;;22.30;99.90;;;;;;5017494;28;20379;-83
2021/09/17 12:42:21;;;;;;;249.53;232.47;;;22.50;99.90;;;;;;5016657;28;20397;-83
2021/09/17 12:45:11;;;;;;;132.90;120.13;;;23.00;99.90;;;;;;5018298;28;20382;-83
2021/09/17 12:47:51;;;;;;;162.93;148.87;;;23.30;99.90;;;;;;5017222;28;20447;-83
2021/09/17 12:50:17;;;;;;;373.67;349.93;;;23.80;97.40;;;;;;5018590;28;20511;-83
2021/09/17 12:52:45;;;;;;;414.33;389.60;;;23.90;93.20;;;;;;5018686;28;20432;-83
2021/09/17 12:55:31;;;;;;;410.27;385.97;;;24.00;90.30;;;;;;5018843;28;20469;-82
2021/09/17 12:58:23;;;;;;;345.53;323.33;;;23.80;89.40;;;;;;5001315;28;20816;-83
2021/09/17 13:00:52;;;;;;;368.47;345.70;;;23.70;81.20;;;;;;5000184;28;20431;-83
2021/09/17 13:03:22;;;;;;;242.10;224.60;;;23.60;84.90;;;;;;4999719;28;20448;-83
2021/09/17 13:06:40;;;;;;;180.23;164.50;;;23.40;91.60;;;;;;5000543;28;20429;-83
2021/09/17 13:09:20;;;;;;;203.37;187.67;;;23.00;94.60;;;;;;5009189;28;20439;-83
2021/09/17 13:12:00;;;;;;;367.00;344.23;;;22.90;97.30;;;;;;5007844;28;20449;-84
2021/09/17 13:14:56;;;;;;;383.50;360.30;;;23.00;94.30;;;;;;5015677;28;20776;-84
2021/09/17 13:18:17;;;;;;;339.03;317.60;;;23.00;92.30;;;;;;5016777;28;20946;-84
2021/09/17 13:20:56;;;;;;;224.90;207.47;;;22.90;86.10;;;;;;4944913;28;20409;-83
2021/09/17 13:23:33;;;;;;;232.70;215.50;;;22.90;90.00;;;;;;5017016;28;20427;-83
2021/09/17 13:29:06;;;;;;;352.13;330.50;;;22.80;91.30;;;;;;4963204;28;20516;-83
2021/09/17 13:31:32;;;;;;;269.43;251.03;;;22.70;84.80;;;;;;5018570;28;20508;-84
2021/09/17 13:34:29;;;;;;;375.67;353.10;;;22.70;86.00;;;;;;5019508;28;20647;-83
2021/09/17 13:37:03;;;;;;;381.83;358.77;;;22.70;90.30;;;;;;5018134;28;20189;-84
2021/09/17 13:39:35;;;;;;;369.97;347.57;;;22.80;90.80;;;;;;5017700;28;20429;-84
2021/09/17 13:42:00;;;;;;;292.73;273.43;;;22.80;90.90;;;;;;5017675;28;20401;-83
2021/09/17 13:44:50;;;;;;;323.60;301.97;;;22.80;83.50;;;;;;5018218;28;20408;-84
2021/09/17 13:47:16;;;;;;;340.43;319.43;;;22.70;86.10;;;;;;5017535;28;20192;-84
2021/09/17 13:49:55;;;;;;;279.40;260.77;;;22.70;90.90;;;;;;5017369;28;20807;-84
2021/09/17 13:52:46;;;;;;;;;;;;;;;;;;;;;
2021/09/17 13:55:14;;;;;;;337.47;316.80;;;22.80;88.40;;;;;;5100122;22;20493;-85
2021/09/17 13:57:39;;;;;;;320.20;299.80;;;22.80;86.20;;;;;;5050291;28;20431;-85
2021/09/17 14:00:06;;;;;;;192.17;176.17;;;22.90;87.30;;;;;;5038050;28;20457;-85
2021/09/17 14:02:33;;;;;;;218.17;202.47;;;22.90;86.40;;;;;;5055407;28;20165;-84
2021/09/17 14:05:00;;;;;;;222.20;206.47;;;23.00;79.60;;;;;;5055720;28;20406;-84
2021/09/17 14:07:25;;;;;;;211.13;195.47;;;23.10;81.70;;;;;;5037345;28;20428;-84
2021/09/17 14:09:51;;;;;;;184.33;169.57;;;23.10;78.40;;;;;;5055516;28;20391;-84
2021/09/17 14:12:18;;;;;;;168.13;153.67;;;23.00;77.10;;;;;;5055520;28;20161;-84
2021/09/17 14:14:44;;;;;;;348.30;327.13;;;22.80;80.10;;;;;;5038183;28;20174;-84
2021/09/17 14:17:09;;;;;;;260.27;242.40;;;22.60;91.40;;;;;;5056212;28;20513;-84
2021/09/17 14:19:35;;;;;;;290.33;271.40;;;22.60;87.90;;;;;;5056008;28;20401;-87
2021/09/17 14:22:03;;;;;;;172.57;157.97;;;22.70;91.30;;;;;;5055679;28;20168;-85
2021/09/17 14:24:29;;;;;;;225.10;208.30;;;22.70;93.40;;;;;;5037923;28;20168;-85
2021/09/17 14:26:55;;;;;;;372.20;349.37;;;22.70;93.20;;;;;;5038066;28;20450;-84
2021/09/17 14:29:20;;;;;;;391.67;368.00;;;22.80;91.60;;;;;;5055550;28;20498;-84
2021/09/17 14:31:50;;;;;;;231.47;214.53;;;22.90;91.10;;;;;;5055717;28;20473;-84
2021/09/17 14:34:16;;;;;;;353.00;331.50;;;23.00;88.10;;;;;;5055558;28;20407;-84
2021/09/17 14:36:41;;;;;;;179.40;164.20;;;23.10;90.50;;;;;;5055380;28;20438;-84
2021/09/17 14:39:07;;;;;;;209.17;192.73;;;23.20;83.10;;;;;;5055300;28;20193;-84
2021/09/17 14:41:34;;;;;;;371.07;348.57;;;23.30;83.80;;;;;;5055534;28;20513;-84
2021/09/17 14:44:00;;;;;;;189.50;174.43;;;23.50;87.10;;;;;;5055444;28;20177;-84
2021/09/17 14:46:28;;;;;;;190.63;175.63;;;23.70;78.20;;;;;;5057585;28;20427;-85
2021/09/17 14:48:54;;;;;;;175.67;160.47;;;23.70;76.30;;;;;;5040478;28;20508;-84
2021/09/17 14:51:20;;;;;;;201.93;186.83;;;23.90;81.50;;;;;;5057918;28;20835;-85
2021/09/17 14:53:45;;;;;;;195.50;180.30;;;24.00;70.90;;;;;;5056804;28;20181;-85
2021/09/17 14:56:11;;;;;;;213.10;197.37;;;24.00;72.30;;;;;;5038813;28;20539;-85
2021/09/17 14:58:37;;;;;;;210.57;195.00;;;24.10;75.50;;;;;;5057846;28;20224;-85
2021/09/17 15:01:03;;;;;;;154.57;140.77;;;24.00;73.20;;;;;;5040204;28;20415;-86
2021/09/17 15:03:29;;;;;;;142.33;129.07;;;23.80;70.00;;;;;;5057536;28;20169;-84
2021/09/17 15:06:03;;;;;;;188.47;172.77;;;23.60;68.30;;;;;;5056894;28;20411;-86
2021/09/17 15:08:29;;;;;;;190.40;175.73;;;23.40;62.00;;;;;;5058260;28;20418;-84
2021/09/17 15:10:55;;;;;;;258.07;239.63;;;23.20;73.50;;;;;;5056813;28;20479;-84
2021/09/17 15:13:25;;;;;;;207.27;190.73;;;22.90;90.20;;;;;;5056951;28;20240;-85
2021/09/17 15:15:52;;;;;;;150.23;136.67;;;22.90;91.20;;;;;;5038738;28;20408;-85
2021/09/17 15:18:19;;;;;;;156.27;142.37;;;22.90;88.50;;;;;;5056861;28;20423;-85
2021/09/17 15:20:46;;;;;;;147.97;134.47;;;22.90;91.20;;;;;;5056824;28;20913;-86
2021/09/17 15:23:14;;;;;;;149.20;135.67;;;22.70;89.50;;;;;;5038355;28;20512;-85
2021/09/17 15:25:39;;;;;;;156.23;142.33;;;22.70;90.20;;;;;;5056460;28;20900;-86
2021/09/17 15:28:05;;;;;;;147.13;133.07;;;22.60;86.90;;;;;;5038517;28;20463;-86
2021/09/17 15:30:31;;;;;;;250.33;232.17;;;22.50;91.10;;;;;;5056186;28;20213;-86
2021/09/17 15:32:56;;;;;;;339.37;317.43;;;22.40;91.70;;;;;;5039231;28;20501;-86
2021/09/17 15:35:22;;;;;;;260.20;241.83;;;22.40;92.40;;;;;;5059889;28;20538;-86
2021/09/17 15:37:48;;;;;;;121.30;108.40;;;22.30;93.80;;;;;;5059792;28;20717;-85
2021/09/17 15:40:14;;;;;;;112.83;100.93;;;22.30;97.00;;;;;;5059863;28;20169;-86
2021/09/17 15:42:39;;;;;;;102.53;83.83;;;22.20;98.40;;;;;;5060434;28;20517;-86
2021/09/17 15:45:09;;;;;;;107.20;88.10;;;22.20;99.90;;;;;;5059733;28;20636;-86
2021/09/17 15:47:35;;;;;;;192.33;177.07;;;22.20;99.90;;;;;;5060093;28;20192;-86
2021/09/17 15:50:02;;;;;;;136.73;123.43;;;22.30;96.70;;;;;;5041554;28;20418;-85
2021/09/17 15:52:29;;;;;;;101.97;86.10;;;22.30;96.40;;;;;;5060511;28;20883;-85
2021/09/17 15:54:55;;;;;;;98.20;81.27;;;22.30;97.80;;;;;;5059487;28;20458;-85
2021/09/17 15:57:20;;;;;;;109.50;96.17;;;22.20;99.20;;;;;;5060155;28;20427;-85
2021/09/17 15:59:46;;;;;;;97.20;82.13;;;22.30;99.90;;;;;;5060060;28;20211;-85
2021/09/17 16:02:12;;;;;;;99.80;86.03;;;22.30;99.20;;;;;;5059986;28;20175;-85
2021/09/17 16:04:38;;;;;;;107.03;95.77;;;22.20;97.20;;;;;;5059525;28;20165;-85
2021/09/17 16:07:05;;;;;;;101.17;85.23;;;22.20;99.90;;;;;;5059671;28;20430;-85
2021/09/17 16:09:30;;;;;;;102.03;90.10;;;22.10;99.90;;;;;;5059967;28;20214;-85
2021/09/17 16:11:56;;;;;;;102.50;86.07;;;22.10;99.80;;;;;;5059611;28;20838;-86
2021/09/17 16:14:22;;;;;;;104.97;92.70;;;22.00;99.90;;;;;;5041344;28;20180;-85
2021/09/17 16:16:48;;;;;;;167.23;152.97;;;22.00;99.90;;;;;;5058707;28;20423;-85
2021/09/17 16:19:13;;;;;;;154.70;140.90;;;21.90;99.90;;;;;;5059565;28;20157;-85
2021/09/17 16:21:39;;;;;;;108.37;80.23;;;21.90;99.90;;;;;;5059181;28;20187;-85
2021/09/17 16:24:05;;;;;;;92.73;51.07;;;21.80;99.90;;;;;;5040381;28;20176;-86
2021/09/17 16:26:30;;;;;;;86.43;47.43;;;21.80;99.90;;;;;;5040492;28;20197;-85
2021/09/17 16:28:56;;;;;;;86.57;41.00;;;21.70;99.90;;;;;;5059011;28;20234;-86
2021/09/17 16:31:23;;;;;;;99.03;77.50;;;21.70;99.90;;;;;;5058948;28;20192;-85
2021/09/17 16:33:53;;;;;;;133.53;120.97;;;21.60;99.90;;;;;;5059365;28;20167;-85
2021/09/17 16:36:20;;;;;;;99.63;85.77;;;21.60;99.90;;;;;;5058455;28;20430;-85
2021/09/17 16:38:47;;;;;;;176.07;161.60;;;21.50;99.90;;;;;;5041277;28;20413;-86
2021/09/17 16:41:12;;;;;;;188.50;173.93;;;21.50;99.90;;;;;;5058912;28;20407;-85
2021/09/17 16:43:38;;;;;;;165.33;151.60;;;21.40;99.90;;;;;;5058635;28;20408;-86
2021/09/17 16:46:04;;;;;;;147.17;134.50;;;21.40;99.90;;;;;;5057971;28;20188;-85
2021/09/17 16:48:30;;;;;;;148.47;135.63;;;21.40;99.90;;;;;;5040932;28;20434;-85
2021/09/17 16:50:55;;;;;;;123.27;111.47;;;21.40;99.90;;;;;;5040455;28;20217;-85
2021/09/17 16:53:21;;;;;;;141.87;128.57;;;21.40;99.90;;;;;;5058412;28;20172;-85
2021/09/17 16:55:47;;;;;;;130.47;118.07;;;21.30;99.90;;;;;;5058386;28;20168;-85
2021/09/17 16:58:12;;;;;;;109.50;95.80;;;21.20;99.90;;;;;;5057666;28;20638;-85
2021/09/17 17:00:38;;;;;;;101.20;85.53;;;21.20;99.90;;;;;;5059122;28;20191;-85
2021/09/17 17:03:10;;;;;;;99.30;85.73;;;21.20;99.90;;;;;;5059703;28;20180;-85
2021/09/17 17:05:36;;;;;;;109.30;97.53;;;21.10;99.90;;;;;;5059397;28;20149;-86
2021/09/17 17:08:02;;;;;;;93.40;71.07;;;21.10;99.90;;;;;;5058194;28;20789;-85
2021/09/17 17:10:28;;;;;;;88.30;53.53;;;21.00;99.90;;;;;;5057717;28;20199;-85
2021/09/17 17:12:54;;;;;;;84.63;51.53;;;20.90;99.90;;;;;;5058732;28;20414;-85
2021/09/17 17:15:20;;;;;;;87.17;53.53;;;20.90;99.90;;;;;;5058575;28;20180;-85
2021/09/17 17:17:45;;;;;;;89.30;44.27;;;20.80;99.90;;;;;;5057791;28;20233;-85
2021/09/17 17:20:12;;;;;;;85.47;47.50;;;20.80;99.90;;;;;;5059054;28;20399;-85
2021/09/17 17:22:38;;;;;;;83.43;49.20;;;20.70;99.90;;;;;;5040245;28;20181;-85
2021/09/17 17:25:05;;;;;;;90.07;60.30;;;20.70;99.90;;;;;;5058461;28;20473;-85
2021/09/17 17:27:31;;;;;;;99.93;76.47;;;20.60;99.90;;;;;;5057993;28;20529;-85
2021/09/17 17:29:57;;;;;;;134.60;121.00;;;20.60;99.90;;;;;;5057535;28;20501;-85
2021/09/17 17:32:23;;;;;;;168.37;153.97;;;20.50;99.90;;;;;;5057773;28;20167;-86
2021/09/17 17:34:54;;;;;;;156.37;142.47;;;20.50;99.90;;;;;;5058618;28;20164;-85
2021/09/17 17:37:20;;;;;;;151.37;137.70;;;20.40;99.90;;;;;;5057895;28;20789;-85
2021/09/17 17:39:46;;;;;;;158.00;143.93;;;20.40;99.90;;;;;;5058114;28;20404;-85
2021/09/17 17:42:12;;;;;;;161.47;147.57;;;20.30;99.90;;;;;;5058636;28;20895;-85
2021/09/17 17:44:37;;;;;;;184.63;169.73;;;20.20;99.90;;;;;;5058713;28;20200;-85
2021/09/17 17:47:03;;;;;;;151.60;138.27;;;20.20;99.90;;;;;;5057502;28;20192;-85
2021/09/17 17:49:29;;;;;;;161.63;147.07;;;20.10;99.90;;;;;;5058096;28;20168;-85
2021/09/17 17:51:55;;;;;;;222.07;205.57;;;20.10;99.90;;;;;;5057443;28;20459;-85
2021/09/17 17:54:21;;;;;;;209.10;192.97;;;20.00;99.90;;;;;;5058353;28;20426;-85
2021/09/17 17:56:47;;;;;;;226.00;209.53;;;20.00;99.90;;;;;;5056727;28;20451;-85
2021/09/17 17:59:13;;;;;;;236.23;219.20;;;19.90;99.90;;;;;;5057514;28;20634;-85